sensor_id;sensor_type;location;lat;lon;timestamp;P1;durP1;ratioP1;P2;durP2;ratioP2
66800;SDS011;53703;50.326;19.122;2023-05-07T00:01:56;11.10;;;6.40;;
66800;SDS011;53703;50.326;19.122;2023-05-07T00:04:53;12.40;;;7.00;;
66800;SDS011;53703;50.326;19.122;2023-05-07T00:07:48;11.20;;;6.80;;
66800;SDS011;53703;50.326;19.122;2023-05-07T00:10:47;12.80;;;6.70;;
66800;SDS011;53703;50.326;19.122;2023-05-07T00:13:41;12.20;;;6.70;;
66800;SDS011;53703;50.326;19.122;2023-05-07T00:16:35;13.60;;;6.70;;
66800;SDS011;53703;50.326;19.122;2023-05-07T00:19:29;12.50;;;6.70;;
66800;SDS011;53703;50.326;19.122;2023-05-07T00:22:23;11.80;;;6.40;;
66800;SDS011;53703;50.326;19.122;2023-05-07T00:25:18;10.70;;;6.00;;
66800;SDS011;53703;50.326;19.122;2023-05-07T00:28:12;11.80;;;6.20;;
66800;SDS011;53703;50.326;19.122;2023-05-07T00:31:06;11.50;;;6.10;;
66800;SDS011;53703;50.326;19.122;2023-05-07T00:34:00;12.10;;;6.20;;
66800;SDS011;53703;50.326;19.122;2023-05-07T00:36:55;11.40;;;6.30;;
66800;SDS011;53703;50.326;19.122;2023-05-07T00:39:49;12.10;;;5.60;;
66800;SDS011;53703;50.326;19.122;2023-05-07T00:42:43;11.50;;;5.40;;
66800;SDS011;53703;50.326;19.122;2023-05-07T00:45:38;9.70;;;5.70;;
66800;SDS011;53703;50.326;19.122;2023-05-07T00:48:32;9.70;;;5.00;;
66800;SDS011;53703;50.326;19.122;2023-05-07T00:51:26;11.00;;;5.40;;
66800;SDS011;53703;50.326;19.122;2023-05-07T00:54:21;8.10;;;4.70;;
66800;SDS011;53703;50.326;19.122;2023-05-07T00:57:15;7.70;;;4.80;;
66800;SDS011;53703;50.326;19.122;2023-05-07T01:00:10;9.10;;;4.70;;
66800;SDS011;53703;50.326;19.122;2023-05-07T01:03:05;8.40;;;4.30;;
66800;SDS011;53703;50.326;19.122;2023-05-07T01:06:00;7.70;;;4.50;;
66800;SDS011;53703;50.326;19.122;2023-05-07T01:08:56;9.70;;;4.40;;
66800;SDS011;53703;50.326;19.122;2023-05-07T01:11:51;9.70;;;4.30;;
66800;SDS011;53703;50.326;19.122;2023-05-07T01:14:48;8.30;;;4.30;;
66800;SDS011;53703;50.326;19.122;2023-05-07T01:17:42;7.70;;;4.60;;
66800;SDS011;53703;50.326;19.122;2023-05-07T01:20:37;8.10;;;4.70;;
66800;SDS011;53703;50.326;19.122;2023-05-07T01:23:32;8.20;;;4.30;;
66800;SDS011;53703;50.326;19.122;2023-05-07T01:26:27;6.80;;;4.40;;
66800;SDS011;53703;50.326;19.122;2023-05-07T01:29:21;6.30;;;4.00;;
66800;SDS011;53703;50.326;19.122;2023-05-07T01:32:16;7.50;;;4.50;;
66800;SDS011;53703;50.326;19.122;2023-05-07T01:35:18;8.30;;;4.70;;
66800;SDS011;53703;50.326;19.122;2023-05-07T01:38:14;8.90;;;4.30;;
66800;SDS011;53703;50.326;19.122;2023-05-07T01:41:09;8.80;;;4.30;;
66800;SDS011;53703;50.326;19.122;2023-05-07T01:44:04;6.40;;;4.00;;
66800;SDS011;53703;50.326;19.122;2023-05-07T01:46:59;7.20;;;4.20;;
66800;SDS011;53703;50.326;19.122;2023-05-07T01:49:54;7.90;;;4.20;;
66800;SDS011;53703;50.326;19.122;2023-05-07T01:52:50;6.10;;;3.50;;
66800;SDS011;53703;50.326;19.122;2023-05-07T01:55:44;6.20;;;3.90;;
66800;SDS011;53703;50.326;19.122;2023-05-07T01:58:38;5.70;;;3.40;;
66800;SDS011;53703;50.326;19.122;2023-05-07T02:01:32;5.30;;;3.40;;
66800;SDS011;53703;50.326;19.122;2023-05-07T02:04:13;4.20;;;2.90;;
66800;SDS011;53703;50.326;19.122;2023-05-07T02:07:08;5.30;;;3.10;;
66800;SDS011;53703;50.326;19.122;2023-05-07T02:10:02;5.10;;;3.20;;
66800;SDS011;53703;50.326;19.122;2023-05-07T02:12:57;5.60;;;3.10;;
66800;SDS011;53703;50.326;19.122;2023-05-07T02:15:53;5.20;;;3.00;;
66800;SDS011;53703;50.326;19.122;2023-05-07T02:18:47;4.90;;;2.90;;
66800;SDS011;53703;50.326;19.122;2023-05-07T02:21:41;4.30;;;2.90;;
66800;SDS011;53703;50.326;19.122;2023-05-07T02:24:35;3.50;;;2.30;;
66800;SDS011;53703;50.326;19.122;2023-05-07T02:27:29;5.00;;;2.50;;
66800;SDS011;53703;50.326;19.122;2023-05-07T02:30:24;4.70;;;2.00;;
66800;SDS011;53703;50.326;19.122;2023-05-07T02:33:18;3.20;;;2.20;;
66800;SDS011;53703;50.326;19.122;2023-05-07T02:36:13;3.90;;;2.40;;
66800;SDS011;53703;50.326;19.122;2023-05-07T02:39:06;4.00;;;2.20;;
66800;SDS011;53703;50.326;19.122;2023-05-07T02:42:01;3.50;;;2.40;;
66800;SDS011;53703;50.326;19.122;2023-05-07T02:44:54;3.30;;;2.00;;
66800;SDS011;53703;50.326;19.122;2023-05-07T02:47:49;3.00;;;2.00;;
66800;SDS011;53703;50.326;19.122;2023-05-07T02:50:43;2.50;;;1.80;;
66800;SDS011;53703;50.326;19.122;2023-05-07T02:53:37;3.70;;;2.00;;
66800;SDS011;53703;50.326;19.122;2023-05-07T02:56:31;4.20;;;2.00;;
66800;SDS011;53703;50.326;19.122;2023-05-07T02:59:25;9.20;;;3.50;;
66800;SDS011;53703;50.326;19.122;2023-05-07T03:02:19;3.60;;;1.80;;
66800;SDS011;53703;50.326;19.122;2023-05-07T03:05:13;5.30;;;1.90;;
66800;SDS011;53703;50.326;19.122;2023-05-07T03:08:07;2.20;;;1.60;;
66800;SDS011;53703;50.326;19.122;2023-05-07T03:11:02;3.20;;;1.90;;
66800;SDS011;53703;50.326;19.122;2023-05-07T03:13:56;2.50;;;1.70;;
66800;SDS011;53703;50.326;19.122;2023-05-07T03:16:50;3.00;;;1.60;;
66800;SDS011;53703;50.326;19.122;2023-05-07T03:19:44;2.90;;;1.80;;
66800;SDS011;53703;50.326;19.122;2023-05-07T03:22:38;2.90;;;1.70;;
66800;SDS011;53703;50.326;19.122;2023-05-07T03:25:32;3.90;;;1.90;;
66800;SDS011;53703;50.326;19.122;2023-05-07T03:28:26;3.20;;;1.70;;
66800;SDS011;53703;50.326;19.122;2023-05-07T03:31:20;3.00;;;1.70;;
66800;SDS011;53703;50.326;19.122;2023-05-07T03:34:14;2.80;;;1.80;;
66800;SDS011;53703;50.326;19.122;2023-05-07T03:37:12;2.50;;;1.60;;
66800;SDS011;53703;50.326;19.122;2023-05-07T03:40:08;3.20;;;1.60;;
66800;SDS011;53703;50.326;19.122;2023-05-07T03:43:04;3.80;;;1.80;;
66800;SDS011;53703;50.326;19.122;2023-05-07T03:45:57;3.40;;;1.70;;
66800;SDS011;53703;50.326;19.122;2023-05-07T03:48:51;3.50;;;1.60;;
66800;SDS011;53703;50.326;19.122;2023-05-07T03:51:45;3.00;;;1.70;;
66800;SDS011;53703;50.326;19.122;2023-05-07T03:54:39;4.50;;;1.70;;
66800;SDS011;53703;50.326;19.122;2023-05-07T03:57:33;4.90;;;1.90;;
66800;SDS011;53703;50.326;19.122;2023-05-07T04:00:27;5.10;;;1.80;;
66800;SDS011;53703;50.326;19.122;2023-05-07T04:03:24;2.60;;;1.70;;
66800;SDS011;53703;50.326;19.122;2023-05-07T04:06:18;3.00;;;1.50;;
66800;SDS011;53703;50.326;19.122;2023-05-07T04:09:12;3.20;;;1.60;;
66800;SDS011;53703;50.326;19.122;2023-05-07T04:12:07;4.30;;;2.10;;
66800;SDS011;53703;50.326;19.122;2023-05-07T04:15:01;3.20;;;1.60;;
66800;SDS011;53703;50.326;19.122;2023-05-07T04:17:56;3.20;;;1.60;;
66800;SDS011;53703;50.326;19.122;2023-05-07T04:20:50;2.70;;;1.50;;
66800;SDS011;53703;50.326;19.122;2023-05-07T04:23:44;3.40;;;1.70;;
66800;SDS011;53703;50.326;19.122;2023-05-07T04:26:38;2.70;;;1.50;;
66800;SDS011;53703;50.326;19.122;2023-05-07T04:29:32;2.80;;;1.50;;
66800;SDS011;53703;50.326;19.122;2023-05-07T04:32:26;3.30;;;1.50;;
66800;SDS011;53703;50.326;19.122;2023-05-07T04:35:20;3.30;;;1.60;;
66800;SDS011;53703;50.326;19.122;2023-05-07T04:38:15;2.50;;;1.70;;
66800;SDS011;53703;50.326;19.122;2023-05-07T04:41:12;2.20;;;1.60;;
66800;SDS011;53703;50.326;19.122;2023-05-07T04:44:08;2.40;;;1.30;;
66800;SDS011;53703;50.326;19.122;2023-05-07T04:47:02;4.40;;;1.70;;
66800;SDS011;53703;50.326;19.122;2023-05-07T04:49:56;2.90;;;1.20;;
66800;SDS011;53703;50.326;19.122;2023-05-07T04:52:51;3.20;;;1.40;;
66800;SDS011;53703;50.326;19.122;2023-05-07T04:55:45;2.80;;;1.60;;
66800;SDS011;53703;50.326;19.122;2023-05-07T04:58:39;3.30;;;1.50;;
66800;SDS011;53703;50.326;19.122;2023-05-07T05:01:33;3.10;;;1.50;;
66800;SDS011;53703;50.326;19.122;2023-05-07T05:04:27;2.40;;;1.50;;
66800;SDS011;53703;50.326;19.122;2023-05-07T05:07:22;2.80;;;1.40;;
66800;SDS011;53703;50.326;19.122;2023-05-07T05:10:16;2.80;;;1.40;;
66800;SDS011;53703;50.326;19.122;2023-05-07T05:13:13;2.80;;;1.40;;
66800;SDS011;53703;50.326;19.122;2023-05-07T05:16:07;2.20;;;1.40;;
66800;SDS011;53703;50.326;19.122;2023-05-07T05:19:02;3.30;;;1.50;;
66800;SDS011;53703;50.326;19.122;2023-05-07T05:21:56;2.60;;;1.40;;
66800;SDS011;53703;50.326;19.122;2023-05-07T05:24:52;2.20;;;1.70;;
66800;SDS011;53703;50.326;19.122;2023-05-07T05:27:45;3.00;;;1.30;;
66800;SDS011;53703;50.326;19.122;2023-05-07T05:30:40;2.50;;;1.50;;
66800;SDS011;53703;50.326;19.122;2023-05-07T05:33:35;5.40;;;1.50;;
66800;SDS011;53703;50.326;19.122;2023-05-07T05:36:29;2.40;;;1.40;;
66800;SDS011;53703;50.326;19.122;2023-05-07T05:39:23;2.60;;;1.50;;
66800;SDS011;53703;50.326;19.122;2023-05-07T05:42:17;2.20;;;1.30;;
66800;SDS011;53703;50.326;19.122;2023-05-07T05:45:12;2.70;;;1.40;;
66800;SDS011;53703;50.326;19.122;2023-05-07T05:48:06;3.00;;;1.40;;
66800;SDS011;53703;50.326;19.122;2023-05-07T05:51:01;3.20;;;1.40;;
66800;SDS011;53703;50.326;19.122;2023-05-07T05:53:55;3.30;;;1.50;;
66800;SDS011;53703;50.326;19.122;2023-05-07T05:56:49;4.00;;;2.20;;
66800;SDS011;53703;50.326;19.122;2023-05-07T05:59:43;5.00;;;2.10;;
66800;SDS011;53703;50.326;19.122;2023-05-07T06:02:38;4.80;;;2.70;;
66800;SDS011;53703;50.326;19.122;2023-05-07T06:05:33;5.80;;;2.80;;
66800;SDS011;53703;50.326;19.122;2023-05-07T06:08:29;3.50;;;2.00;;
66800;SDS011;53703;50.326;19.122;2023-05-07T06:11:23;2.30;;;1.70;;
66800;SDS011;53703;50.326;19.122;2023-05-07T06:14:17;2.50;;;1.70;;
66800;SDS011;53703;50.326;19.122;2023-05-07T06:17:11;2.90;;;1.80;;
66800;SDS011;53703;50.326;19.122;2023-05-07T06:20:07;3.50;;;2.00;;
66800;SDS011;53703;50.326;19.122;2023-05-07T06:23:02;2.70;;;1.70;;
66800;SDS011;53703;50.326;19.122;2023-05-07T06:25:56;3.00;;;2.10;;
66800;SDS011;53703;50.326;19.122;2023-05-07T06:28:50;3.50;;;1.90;;
66800;SDS011;53703;50.326;19.122;2023-05-07T06:31:44;2.70;;;1.60;;
66800;SDS011;53703;50.326;19.122;2023-05-07T06:34:38;3.90;;;1.90;;
66800;SDS011;53703;50.326;19.122;2023-05-07T06:37:32;2.70;;;1.70;;
66800;SDS011;53703;50.326;19.122;2023-05-07T06:40:29;4.80;;;1.90;;
66800;SDS011;53703;50.326;19.122;2023-05-07T06:43:23;2.60;;;1.60;;
66800;SDS011;53703;50.326;19.122;2023-05-07T06:46:17;3.90;;;1.60;;
66800;SDS011;53703;50.326;19.122;2023-05-07T06:49:11;2.70;;;1.60;;
66800;SDS011;53703;50.326;19.122;2023-05-07T06:52:06;2.80;;;1.60;;
66800;SDS011;53703;50.326;19.122;2023-05-07T06:54:59;3.40;;;1.90;;
66800;SDS011;53703;50.326;19.122;2023-05-07T06:57:54;4.40;;;3.00;;
66800;SDS011;53703;50.326;19.122;2023-05-07T07:00:51;4.00;;;2.00;;
66800;SDS011;53703;50.326;19.122;2023-05-07T07:03:28;4.10;;;2.10;;
66800;SDS011;53703;50.326;19.122;2023-05-07T07:06:22;3.10;;;1.80;;
66800;SDS011;53703;50.326;19.122;2023-05-07T07:09:16;4.00;;;2.20;;
66800;SDS011;53703;50.326;19.122;2023-05-07T07:12:13;3.60;;;1.90;;
66800;SDS011;53703;50.326;19.122;2023-05-07T07:15:09;2.60;;;1.60;;
66800;SDS011;53703;50.326;19.122;2023-05-07T07:18:04;3.60;;;1.50;;
66800;SDS011;53703;50.326;19.122;2023-05-07T07:20:58;3.40;;;1.90;;
66800;SDS011;53703;50.326;19.122;2023-05-07T07:24:12;4.50;;;2.00;;
66800;SDS011;53703;50.326;19.122;2023-05-07T07:27:16;4.10;;;2.60;;
66800;SDS011;53703;50.326;19.122;2023-05-07T07:30:42;2.60;;;1.50;;
66800;SDS011;53703;50.326;19.122;2023-05-07T07:33:47;2.70;;;1.40;;
66800;SDS011;53703;50.326;19.122;2023-05-07T07:36:43;3.40;;;1.40;;
66800;SDS011;53703;50.326;19.122;2023-05-07T07:39:37;2.50;;;1.50;;
66800;SDS011;53703;50.326;19.122;2023-05-07T07:42:31;2.70;;;1.60;;
66800;SDS011;53703;50.326;19.122;2023-05-07T07:45:25;2.60;;;1.70;;
66800;SDS011;53703;50.326;19.122;2023-05-07T07:48:19;2.60;;;1.50;;
66800;SDS011;53703;50.326;19.122;2023-05-07T07:51:13;4.70;;;1.60;;
66800;SDS011;53703;50.326;19.122;2023-05-07T07:54:07;3.30;;;1.70;;
66800;SDS011;53703;50.326;19.122;2023-05-07T07:57:02;4.90;;;2.20;;
66800;SDS011;53703;50.326;19.122;2023-05-07T07:59:56;5.30;;;3.00;;
66800;SDS011;53703;50.326;19.122;2023-05-07T08:02:50;6.30;;;2.90;;
66800;SDS011;53703;50.326;19.122;2023-05-07T08:05:44;4.10;;;2.40;;
66800;SDS011;53703;50.326;19.122;2023-05-07T08:08:40;3.80;;;2.30;;
66800;SDS011;53703;50.326;19.122;2023-05-07T08:11:34;4.20;;;1.80;;
66800;SDS011;53703;50.326;19.122;2023-05-07T08:14:28;3.20;;;2.10;;
66800;SDS011;53703;50.326;19.122;2023-05-07T08:17:23;5.00;;;2.10;;
66800;SDS011;53703;50.326;19.122;2023-05-07T08:20:17;4.00;;;2.10;;
66800;SDS011;53703;50.326;19.122;2023-05-07T08:23:11;3.80;;;1.90;;
66800;SDS011;53703;50.326;19.122;2023-05-07T08:26:05;3.10;;;2.00;;
66800;SDS011;53703;50.326;19.122;2023-05-07T08:28:59;4.10;;;2.00;;
66800;SDS011;53703;50.326;19.122;2023-05-07T08:31:53;3.50;;;1.80;;
66800;SDS011;53703;50.326;19.122;2023-05-07T08:34:47;6.80;;;2.10;;
66800;SDS011;53703;50.326;19.122;2023-05-07T08:37:41;2.70;;;2.00;;
66800;SDS011;53703;50.326;19.122;2023-05-07T08:40:38;4.60;;;1.80;;
66800;SDS011;53703;50.326;19.122;2023-05-07T08:43:33;2.70;;;1.80;;
66800;SDS011;53703;50.326;19.122;2023-05-07T08:46:31;3.30;;;2.00;;
66800;SDS011;53703;50.326;19.122;2023-05-07T08:49:26;2.80;;;1.80;;
66800;SDS011;53703;50.326;19.122;2023-05-07T08:52:20;4.50;;;2.10;;
66800;SDS011;53703;50.326;19.122;2023-05-07T08:55:15;2.70;;;1.80;;
66800;SDS011;53703;50.326;19.122;2023-05-07T08:58:09;3.20;;;1.70;;
66800;SDS011;53703;50.326;19.122;2023-05-07T09:01:03;3.50;;;1.90;;
66800;SDS011;53703;50.326;19.122;2023-05-07T09:04:01;2.90;;;2.00;;
66800;SDS011;53703;50.326;19.122;2023-05-07T09:06:56;2.70;;;1.90;;
66800;SDS011;53703;50.326;19.122;2023-05-07T09:09:56;3.00;;;1.70;;
66800;SDS011;53703;50.326;19.122;2023-05-07T09:12:50;3.00;;;2.20;;
66800;SDS011;53703;50.326;19.122;2023-05-07T09:15:44;3.40;;;2.00;;
66800;SDS011;53703;50.326;19.122;2023-05-07T09:18:41;3.50;;;1.80;;
66800;SDS011;53703;50.326;19.122;2023-05-07T09:21:35;3.50;;;2.00;;
66800;SDS011;53703;50.326;19.122;2023-05-07T09:24:30;2.90;;;1.60;;
66800;SDS011;53703;50.326;19.122;2023-05-07T09:27:28;2.50;;;1.90;;
66800;SDS011;53703;50.326;19.122;2023-05-07T09:30:22;3.10;;;2.00;;
66800;SDS011;53703;50.326;19.122;2023-05-07T09:33:18;3.20;;;1.90;;
66800;SDS011;53703;50.326;19.122;2023-05-07T09:36:12;5.60;;;2.30;;
66800;SDS011;53703;50.326;19.122;2023-05-07T09:39:06;2.80;;;2.00;;
66800;SDS011;53703;50.326;19.122;2023-05-07T09:42:01;3.50;;;2.10;;
66800;SDS011;53703;50.326;19.122;2023-05-07T09:44:56;3.70;;;1.90;;
66800;SDS011;53703;50.326;19.122;2023-05-07T09:47:52;3.10;;;1.60;;
66800;SDS011;53703;50.326;19.122;2023-05-07T09:50:49;3.00;;;2.00;;
66800;SDS011;53703;50.326;19.122;2023-05-07T09:53:48;18.20;;;2.60;;
66800;SDS011;53703;50.326;19.122;2023-05-07T09:56:44;4.50;;;2.50;;
66800;SDS011;53703;50.326;19.122;2023-05-07T09:59:39;3.50;;;2.70;;
66800;SDS011;53703;50.326;19.122;2023-05-07T10:02:35;5.80;;;2.50;;
66800;SDS011;53703;50.326;19.122;2023-05-07T10:05:37;3.30;;;2.20;;
66800;SDS011;53703;50.326;19.122;2023-05-07T10:08:31;4.30;;;2.80;;
66800;SDS011;53703;50.326;19.122;2023-05-07T10:11:27;3.30;;;2.40;;
66800;SDS011;53703;50.326;19.122;2023-05-07T10:14:22;4.40;;;2.50;;
66800;SDS011;53703;50.326;19.122;2023-05-07T10:17:17;3.90;;;2.50;;
66800;SDS011;53703;50.326;19.122;2023-05-07T10:20:12;3.20;;;2.10;;
66800;SDS011;53703;50.326;19.122;2023-05-07T10:23:07;3.10;;;2.00;;
66800;SDS011;53703;50.326;19.122;2023-05-07T10:26:05;3.50;;;2.20;;
66800;SDS011;53703;50.326;19.122;2023-05-07T10:29:02;16.30;;;11.40;;
66800;SDS011;53703;50.326;19.122;2023-05-07T10:32:03;4.70;;;2.50;;
66800;SDS011;53703;50.326;19.122;2023-05-07T10:35:14;4.70;;;3.20;;
66800;SDS011;53703;50.326;19.122;2023-05-07T10:38:11;3.40;;;2.50;;
66800;SDS011;53703;50.326;19.122;2023-05-07T10:41:05;3.40;;;2.80;;
66800;SDS011;53703;50.326;19.122;2023-05-07T10:43:59;4.30;;;2.60;;
66800;SDS011;53703;50.326;19.122;2023-05-07T10:47:06;3.20;;;2.30;;
66800;SDS011;53703;50.326;19.122;2023-05-07T10:50:21;3.70;;;2.40;;
66800;SDS011;53703;50.326;19.122;2023-05-07T10:53:25;3.70;;;2.40;;
66800;SDS011;53703;50.326;19.122;2023-05-07T10:56:29;4.90;;;2.80;;
66800;SDS011;53703;50.326;19.122;2023-05-07T11:03:11;4.00;;;2.30;;
66800;SDS011;53703;50.326;19.122;2023-05-07T11:06:13;5.10;;;2.80;;
66800;SDS011;53703;50.326;19.122;2023-05-07T11:09:08;4.70;;;2.80;;
66800;SDS011;53703;50.326;19.122;2023-05-07T11:12:05;4.80;;;2.80;;
66800;SDS011;53703;50.326;19.122;2023-05-07T11:14:59;4.10;;;2.70;;
66800;SDS011;53703;50.326;19.122;2023-05-07T11:17:57;4.60;;;3.10;;
66800;SDS011;53703;50.326;19.122;2023-05-07T11:20:58;4.60;;;3.00;;
66800;SDS011;53703;50.326;19.122;2023-05-07T11:24:01;5.80;;;3.10;;
66800;SDS011;53703;50.326;19.122;2023-05-07T11:26:56;5.10;;;3.10;;
66800;SDS011;53703;50.326;19.122;2023-05-07T11:29:50;5.10;;;3.30;;
66800;SDS011;53703;50.326;19.122;2023-05-07T11:32:46;4.40;;;3.30;;
66800;SDS011;53703;50.326;19.122;2023-05-07T11:35:40;5.60;;;3.40;;
66800;SDS011;53703;50.326;19.122;2023-05-07T11:38:37;4.90;;;3.50;;
66800;SDS011;53703;50.326;19.122;2023-05-07T11:41:38;5.00;;;3.00;;
66800;SDS011;53703;50.326;19.122;2023-05-07T11:44:46;5.20;;;3.70;;
66800;SDS011;53703;50.326;19.122;2023-05-07T11:47:41;7.10;;;3.30;;
66800;SDS011;53703;50.326;19.122;2023-05-07T11:50:35;13.40;;;3.80;;
66800;SDS011;53703;50.326;19.122;2023-05-07T11:53:42;7.20;;;3.70;;
66800;SDS011;53703;50.326;19.122;2023-05-07T11:56:37;5.20;;;3.40;;
66800;SDS011;53703;50.326;19.122;2023-05-07T11:59:31;8.00;;;4.90;;
66800;SDS011;53703;50.326;19.122;2023-05-07T12:02:46;10.30;;;7.40;;
66800;SDS011;53703;50.326;19.122;2023-05-07T12:05:40;7.40;;;5.30;;
66800;SDS011;53703;50.326;19.122;2023-05-07T12:08:37;7.50;;;4.70;;
66800;SDS011;53703;50.326;19.122;2023-05-07T12:11:32;9.20;;;4.40;;
66800;SDS011;53703;50.326;19.122;2023-05-07T12:14:29;7.80;;;4.00;;
66800;SDS011;53703;50.326;19.122;2023-05-07T12:17:23;7.70;;;4.10;;
66800;SDS011;53703;50.326;19.122;2023-05-07T12:20:17;5.90;;;3.90;;
66800;SDS011;53703;50.326;19.122;2023-05-07T12:23:12;9.10;;;4.10;;
66800;SDS011;53703;50.326;19.122;2023-05-07T12:26:06;5.70;;;3.50;;
66800;SDS011;53703;50.326;19.122;2023-05-07T12:29:01;7.80;;;3.30;;
66800;SDS011;53703;50.326;19.122;2023-05-07T12:31:56;4.00;;;3.30;;
66800;SDS011;53703;50.326;19.122;2023-05-07T12:34:52;4.10;;;2.70;;
66800;SDS011;53703;50.326;19.122;2023-05-07T12:37:46;5.10;;;2.70;;
66800;SDS011;53703;50.326;19.122;2023-05-07T12:43:46;4.80;;;2.90;;
66800;SDS011;53703;50.326;19.122;2023-05-07T12:46:41;5.40;;;2.60;;
66800;SDS011;53703;50.326;19.122;2023-05-07T12:49:37;6.80;;;2.60;;
66800;SDS011;53703;50.326;19.122;2023-05-07T12:52:31;6.90;;;3.80;;
66800;SDS011;53703;50.326;19.122;2023-05-07T12:55:25;12.60;;;6.70;;
66800;SDS011;53703;50.326;19.122;2023-05-07T12:58:26;8.90;;;4.90;;
66800;SDS011;53703;50.326;19.122;2023-05-07T13:01:21;9.50;;;5.20;;
66800;SDS011;53703;50.326;19.122;2023-05-07T13:04:36;5.70;;;3.80;;
66800;SDS011;53703;50.326;19.122;2023-05-07T13:07:31;5.90;;;3.60;;
66800;SDS011;53703;50.326;19.122;2023-05-07T13:10:25;5.40;;;3.50;;
66800;SDS011;53703;50.326;19.122;2023-05-07T13:13:19;7.10;;;4.80;;
66800;SDS011;53703;50.326;19.122;2023-05-07T13:16:13;8.00;;;4.20;;
66800;SDS011;53703;50.326;19.122;2023-05-07T13:19:08;4.90;;;3.40;;
66800;SDS011;53703;50.326;19.122;2023-05-07T13:22:13;6.70;;;3.90;;
66800;SDS011;53703;50.326;19.122;2023-05-07T13:25:08;4.90;;;3.10;;
66800;SDS011;53703;50.326;19.122;2023-05-07T13:28:03;5.10;;;3.20;;
66800;SDS011;53703;50.326;19.122;2023-05-07T13:31:18;4.80;;;2.90;;
66800;SDS011;53703;50.326;19.122;2023-05-07T13:34:12;5.70;;;3.00;;
66800;SDS011;53703;50.326;19.122;2023-05-07T13:37:07;4.50;;;3.20;;
66800;SDS011;53703;50.326;19.122;2023-05-07T13:40:02;5.70;;;2.70;;
66800;SDS011;53703;50.326;19.122;2023-05-07T13:42:58;6.00;;;2.60;;
66800;SDS011;53703;50.326;19.122;2023-05-07T13:45:53;6.00;;;3.00;;
66800;SDS011;53703;50.326;19.122;2023-05-07T13:48:47;5.00;;;2.80;;
66800;SDS011;53703;50.326;19.122;2023-05-07T13:51:41;5.60;;;3.30;;
66800;SDS011;53703;50.326;19.122;2023-05-07T13:54:37;3.60;;;3.20;;
66800;SDS011;53703;50.326;19.122;2023-05-07T13:57:31;5.00;;;3.20;;
66800;SDS011;53703;50.326;19.122;2023-05-07T14:00:25;4.30;;;2.70;;
66800;SDS011;53703;50.326;19.122;2023-05-07T14:03:20;4.80;;;3.00;;
66800;SDS011;53703;50.326;19.122;2023-05-07T14:06:14;5.00;;;3.50;;
66800;SDS011;53703;50.326;19.122;2023-05-07T14:09:08;8.50;;;3.70;;
66800;SDS011;53703;50.326;19.122;2023-05-07T14:12:07;5.30;;;3.50;;
66800;SDS011;53703;50.326;19.122;2023-05-07T14:15:06;5.90;;;3.30;;
66800;SDS011;53703;50.326;19.122;2023-05-07T14:18:01;4.70;;;3.10;;
66800;SDS011;53703;50.326;19.122;2023-05-07T14:20:55;5.30;;;3.60;;
66800;SDS011;53703;50.326;19.122;2023-05-07T14:23:50;7.40;;;3.80;;
66800;SDS011;53703;50.326;19.122;2023-05-07T14:26:44;6.60;;;4.00;;
66800;SDS011;53703;50.326;19.122;2023-05-07T14:29:38;6.30;;;3.90;;
66800;SDS011;53703;50.326;19.122;2023-05-07T14:32:31;5.40;;;3.80;;
66800;SDS011;53703;50.326;19.122;2023-05-07T14:35:26;6.60;;;3.80;;
66800;SDS011;53703;50.326;19.122;2023-05-07T14:38:20;7.20;;;3.90;;
66800;SDS011;53703;50.326;19.122;2023-05-07T14:41:13;7.30;;;3.40;;
66800;SDS011;53703;50.326;19.122;2023-05-07T14:44:07;6.20;;;3.20;;
66800;SDS011;53703;50.326;19.122;2023-05-07T14:47:01;6.10;;;3.30;;
66800;SDS011;53703;50.326;19.122;2023-05-07T14:49:55;5.90;;;3.60;;
66800;SDS011;53703;50.326;19.122;2023-05-07T14:53:13;4.90;;;3.10;;
66800;SDS011;53703;50.326;19.122;2023-05-07T14:56:07;5.70;;;3.10;;
66800;SDS011;53703;50.326;19.122;2023-05-07T14:59:01;6.60;;;3.30;;
66800;SDS011;53703;50.326;19.122;2023-05-07T15:01:55;5.00;;;3.50;;
66800;SDS011;53703;50.326;19.122;2023-05-07T15:04:50;5.50;;;3.40;;
66800;SDS011;53703;50.326;19.122;2023-05-07T15:07:43;7.20;;;3.40;;
66800;SDS011;53703;50.326;19.122;2023-05-07T15:10:38;5.90;;;3.40;;
66800;SDS011;53703;50.326;19.122;2023-05-07T15:13:32;6.30;;;3.70;;
66800;SDS011;53703;50.326;19.122;2023-05-07T15:16:26;6.90;;;3.60;;
66800;SDS011;53703;50.326;19.122;2023-05-07T15:19:20;8.40;;;4.10;;
66800;SDS011;53703;50.326;19.122;2023-05-07T15:22:19;6.60;;;3.80;;
66800;SDS011;53703;50.326;19.122;2023-05-07T15:25:13;6.60;;;3.70;;
66800;SDS011;53703;50.326;19.122;2023-05-07T15:28:07;6.60;;;3.80;;
66800;SDS011;53703;50.326;19.122;2023-05-07T15:31:01;7.20;;;3.50;;
66800;SDS011;53703;50.326;19.122;2023-05-07T15:33:55;6.10;;;3.80;;
66800;SDS011;53703;50.326;19.122;2023-05-07T15:36:51;7.60;;;4.10;;
66800;SDS011;53703;50.326;19.122;2023-05-07T15:39:47;8.10;;;4.40;;
66800;SDS011;53703;50.326;19.122;2023-05-07T15:42:41;10.10;;;5.80;;
66800;SDS011;53703;50.326;19.122;2023-05-07T15:45:39;10.40;;;4.40;;
66800;SDS011;53703;50.326;19.122;2023-05-07T15:48:34;8.30;;;4.60;;
66800;SDS011;53703;50.326;19.122;2023-05-07T15:51:28;7.30;;;4.40;;
66800;SDS011;53703;50.326;19.122;2023-05-07T15:54:22;16.70;;;6.50;;
66800;SDS011;53703;50.326;19.122;2023-05-07T15:57:16;14.50;;;6.20;;
66800;SDS011;53703;50.326;19.122;2023-05-07T16:00:11;15.80;;;6.70;;
66800;SDS011;53703;50.326;19.122;2023-05-07T16:03:07;11.50;;;5.20;;
66800;SDS011;53703;50.326;19.122;2023-05-07T16:06:02;12.10;;;6.10;;
66800;SDS011;53703;50.326;19.122;2023-05-07T16:08:56;8.90;;;5.00;;
66800;SDS011;53703;50.326;19.122;2023-05-07T16:11:50;10.50;;;4.60;;
66800;SDS011;53703;50.326;19.122;2023-05-07T16:14:44;8.70;;;5.00;;
66800;SDS011;53703;50.326;19.122;2023-05-07T16:17:38;10.30;;;5.70;;
66800;SDS011;53703;50.326;19.122;2023-05-07T16:20:33;11.50;;;4.90;;
66800;SDS011;53703;50.326;19.122;2023-05-07T16:23:27;9.60;;;4.50;;
66800;SDS011;53703;50.326;19.122;2023-05-07T16:26:21;8.20;;;4.50;;
66800;SDS011;53703;50.326;19.122;2023-05-07T16:29:16;9.50;;;5.00;;
66800;SDS011;53703;50.326;19.122;2023-05-07T16:32:11;10.30;;;4.80;;
66800;SDS011;53703;50.326;19.122;2023-05-07T16:35:06;9.90;;;4.30;;
66800;SDS011;53703;50.326;19.122;2023-05-07T16:38:01;6.80;;;4.50;;
66800;SDS011;53703;50.326;19.122;2023-05-07T16:41:00;7.70;;;4.90;;
66800;SDS011;53703;50.326;19.122;2023-05-07T16:43:55;7.80;;;4.90;;
66800;SDS011;53703;50.326;19.122;2023-05-07T16:46:49;7.90;;;4.80;;
66800;SDS011;53703;50.326;19.122;2023-05-07T16:49:43;8.40;;;4.70;;
66800;SDS011;53703;50.326;19.122;2023-05-07T16:52:37;7.60;;;5.40;;
66800;SDS011;53703;50.326;19.122;2023-05-07T16:55:31;9.70;;;6.20;;
66800;SDS011;53703;50.326;19.122;2023-05-07T16:58:28;8.20;;;4.60;;
66800;SDS011;53703;50.326;19.122;2023-05-07T17:01:22;8.70;;;5.30;;
66800;SDS011;53703;50.326;19.122;2023-05-07T17:04:17;8.60;;;5.00;;
66800;SDS011;53703;50.326;19.122;2023-05-07T17:07:10;8.60;;;5.20;;
66800;SDS011;53703;50.326;19.122;2023-05-07T17:10:08;8.30;;;4.80;;
66800;SDS011;53703;50.326;19.122;2023-05-07T17:13:02;8.00;;;5.00;;
66800;SDS011;53703;50.326;19.122;2023-05-07T17:15:56;8.60;;;4.70;;
66800;SDS011;53703;50.326;19.122;2023-05-07T17:18:51;7.50;;;4.60;;
66800;SDS011;53703;50.326;19.122;2023-05-07T17:21:45;7.50;;;4.90;;
66800;SDS011;53703;50.326;19.122;2023-05-07T17:24:39;7.50;;;4.40;;
66800;SDS011;53703;50.326;19.122;2023-05-07T17:27:32;7.60;;;4.80;;